Whitman, NE

2:37 AM MDT on September 17, 2014 (GMT -0600)
Searle | Change Station
CLOSE
Current Station
Airport
Location: Ogallala,
Elevation: 3278 ft
Nearby Weather Stations

Elev 3278 ft 41.12 °N, 101.77 °W | Updated 22 minutes ago

Clear
Clear
53 °F
Feels Like 53 °F
N
0
Wind Variable Wind from North

Today
High -- | Low -- °F
--% Chance of Precip.
Yesterday
High -- | Low -- °F
Precip. -- in
6:28 AM 6:52 PM
Last Quarter, 38% visible
Pressure 29.98 in
Visibility 5.0 miles
Clouds Clear
Dew Point 51 °F
Humidity 95%
Rainfall 0.00 in
Snow Depth Not available.
UV 0 out of 12
Pollen 5.30 out of 12
Air Quality Not available.
Flu Activity Not available.
METAR KOGA 170815Z AUTO 00000KT 5SM BR CLR 12/11 A2998 RMK AO2 T01150108

More Conditions Fewer Conditions

Pressure 29.98 in
Visibility 5.0 miles
Clouds Clear
Dew Point 51 °F
Humidity 95%
Rainfall 0.00 in
Snow Depth Not available.
UV 0 out of 12
Pollen 5.30 out of 12
Air Quality Not available.
Flu Activity Not available.
METAR KOGA 170815Z AUTO 00000KT 5SM BR CLR 12/11 A2998 RMK AO2 T01150108

More Conditions Fewer Conditions

10-Day Weather Forecast

Almanac

Astronomy

Sep. 17, 2014 Rise Set
Actual Time 6:28 AM MDT 6:52 PM MDT
Civil Twilight 6:00 AM MDT 7:19 PM MDT
Nautical Twilight 5:27 AM MDT 7:52 PM MDT
Astronomical Twilight 4:53 AM MDT 8:26 PM MDT
Moon 12:26 AM MDT 3:07 PM MDT
Length of Visible Light 13h 19m
Length of Day
12h 23m
Tomorrow will be 2m 47s shorter.
Last Quarter, 38% of the Moon is Illuminated
Today
Last Quarter
Sep 24
New
Oct 1
First Quarter
Oct 8
Full
Oct 15
Last Quarter

Today's Extremes

State Highs State Lows

Community

WunderPhotos

Upload Photos

1,753,990 photos uploaded!

Nearby

Snow Depth

Station Depth Elevation
No new snow has been reported.

Earthquake Activity

City Distance Mag. Time & Date
No recent earthquake activity has been reported nearby.
Minimum magnitude displayed is 2.5.

Coastal Water Temperatures

Place Temperature
No Stations Reporting

Nearby Weather Stations